Time;durP1;ratioP1;P1;durP2;ratioP2;P2;SDS_P1;SDS_P2;PMS_P1;PMS_P2;Temp;Humidity;BMP_temperature;BMP_pressure;BME280_temperature;BME280_humidity;BME280_pressure;Samples;Min_cycle;Max_cycle;Signal;HPM_P1;HPM_P2
2021/05/19 00:01:42;;;;;;;6.43;3.72;;;11.30;99.90;;;;;;4956334;28;20098;-73
2021/05/19 00:04:08;;;;;;;4.13;3.83;;;11.20;99.90;;;;;;4965111;28;20065;-73
2021/05/19 00:06:34;;;;;;;4.43;3.67;;;11.20;99.90;;;;;;4955511;28;20059;-73
2021/05/19 00:09:02;;;;;;;4.60;3.78;;;11.30;99.90;;;;;;4959710;28;20039;-73
2021/05/19 00:11:28;;;;;;;4.15;3.65;;;11.30;99.90;;;;;;4955826;28;20023;-73
2021/05/19 00:13:53;;;;;;;4.35;3.95;;;11.30;99.90;;;;;;4959717;28;20073;-73
2021/05/19 00:16:20;;;;;;;6.38;4.20;;;11.30;99.90;;;;;;4958392;28;20452;-73
2021/05/19 00:18:45;;;;;;;5.30;3.80;;;11.30;99.90;;;;;;4955935;28;20027;-73
2021/05/19 00:21:11;;;;;;;5.75;4.40;;;11.30;99.90;;;;;;4955321;28;20049;-73
2021/05/19 00:23:37;;;;;;;7.70;4.53;;;11.20;99.90;;;;;;4956014;28;20032;-73
2021/05/19 00:26:04;;;;;;;6.18;4.65;;;11.20;99.90;;;;;;4956258;28;20508;-72
2021/05/19 00:28:31;;;;;;;7.63;5.22;;;11.30;99.90;;;;;;4955452;28;20499;-73
2021/05/19 00:30:59;;;;;;;5.32;4.82;;;11.20;99.90;;;;;;4955267;28;20035;-73
2021/05/19 00:33:24;;;;;;;7.05;5.07;;;11.20;99.90;;;;;;4955855;28;20440;-73
2021/05/19 00:35:50;;;;;;;6.53;4.85;;;11.10;99.90;;;;;;4955681;28;20037;-74
2021/05/19 00:38:17;;;;;;;6.75;4.15;;;11.00;99.90;;;;;;4970033;28;20027;-74
2021/05/19 00:40:43;;;;;;;4.63;4.20;;;11.10;99.90;;;;;;4974757;28;20487;-73
2021/05/19 00:43:09;;;;;;;6.57;5.75;;;11.00;99.90;;;;;;4975522;28;20050;-73
2021/05/19 00:45:34;;;;;;;5.40;4.68;;;10.90;99.90;;;;;;4975028;28;20030;-73
2021/05/19 00:48:00;;;;;;;6.90;4.68;;;11.00;99.90;;;;;;4971865;28;20360;-73
2021/05/19 00:50:28;;;;;;;6.15;4.70;;;11.00;99.90;;;;;;4974251;28;20027;-73
2021/05/19 00:52:54;;;;;;;6.93;5.25;;;11.00;99.90;;;;;;4973201;28;20027;-73
2021/05/19 00:55:20;;;;;;;6.43;4.63;;;11.00;99.90;;;;;;4974371;28;20449;-73
2021/05/19 00:57:50;;;;;;;9.32;5.70;;;11.00;99.90;;;;;;4974707;28;20015;-73
2021/05/19 01:00:19;;;;;;;7.40;5.32;;;10.90;99.90;;;;;;4971577;28;20035;-73
2021/05/19 01:02:45;;;;;;;5.78;4.55;;;10.70;99.90;;;;;;4973167;28;20479;-75
2021/05/19 01:05:17;;;;;;;7.32;5.25;;;10.60;99.90;;;;;;4974432;28;20113;-74
2021/05/19 01:09:34;;;;;;;4.82;4.38;;;10.50;99.90;;;;;;4972258;28;20042;-73
2021/05/19 01:10:29;;;;;;;5.38;4.88;;;10.50;99.90;;;;;;4974649;28;20361;-73
2021/05/19 01:12:54;;;;;;;5.30;4.80;;;10.50;99.90;;;;;;4974420;28;20113;-73
2021/05/19 01:15:21;;;;;;;5.38;4.43;;;10.60;99.90;;;;;;4975154;28;20022;-73
2021/05/19 01:17:47;;;;;;;6.18;4.45;;;10.50;99.90;;;;;;4973419;28;20043;-73
2021/05/19 01:20:15;;;;;;;4.70;4.30;;;10.60;99.90;;;;;;4974348;28;20051;-73
2021/05/19 01:22:41;;;;;;;6.80;4.30;;;10.40;99.90;;;;;;4974333;28;20081;-73
2021/05/19 01:25:09;;;;;;;5.00;4.60;;;10.30;99.90;;;;;;4974306;28;20026;-73
2021/05/19 01:27:35;;;;;;;4.40;4.00;;;10.20;99.90;;;;;;4972166;28;20034;-73
2021/05/19 01:30:08;;;;;;;5.30;4.80;;;10.20;99.90;;;;;;4974230;28;20023;-73
2021/05/19 01:32:34;;;;;;;6.13;4.45;;;10.20;99.90;;;;;;4973440;28;20082;-73
2021/05/19 01:35:00;;;;;;;5.97;4.45;;;10.20;99.90;;;;;;4974592;28;20035;-73
2021/05/19 01:37:26;;;;;;;5.22;4.20;;;10.10;99.90;;;;;;4974144;28;20077;-74
2021/05/19 01:39:51;;;;;;;4.72;4.30;;;10.10;99.90;;;;;;4973920;28;20475;-73
2021/05/19 01:42:17;;;;;;;5.22;4.72;;;10.10;99.90;;;;;;4974361;28;20282;-73
2021/05/19 01:44:43;;;;;;;5.88;5.30;;;10.10;99.90;;;;;;4972116;28;20019;-73
2021/05/19 01:47:09;;;;;;;6.15;5.55;;;10.10;99.90;;;;;;4969719;28;20380;-73
2021/05/19 01:49:42;;;;;;;4.53;4.22;;;10.20;99.90;;;;;;4970964;28;20019;-73
2021/05/19 01:52:10;;;;;;;5.22;4.68;;;10.20;99.90;;;;;;4974164;28;20034;-73
2021/05/19 01:54:39;;;;;;;5.00;4.38;;;10.20;99.90;;;;;;4973291;28;20043;-73
2021/05/19 01:57:07;;;;;;;5.70;4.32;;;10.20;99.90;;;;;;4974066;28;20030;-73
2021/05/19 01:59:33;;;;;;;5.22;4.13;;;10.20;99.90;;;;;;4973111;28;20065;-73
2021/05/19 02:01:59;;;;;;;5.55;4.32;;;10.20;99.90;;;;;;4972725;28;20539;-73
2021/05/19 02:04:26;;;;;;;7.55;4.53;;;10.30;99.90;;;;;;4973681;28;20102;-73
2021/05/19 02:06:55;;;;;;;6.95;5.18;;;10.30;99.90;;;;;;4972456;28;20078;-73
2021/05/19 02:09:22;;;;;;;6.13;5.05;;;10.30;99.90;;;;;;4971336;28;20077;-73
2021/05/19 02:11:48;;;;;;;4.95;4.47;;;10.30;99.90;;;;;;4966704;28;20026;-73
2021/05/19 02:14:15;;;;;;;6.22;4.55;;;10.30;99.90;;;;;;4973525;28;20111;-74
2021/05/19 02:16:41;;;;;;;5.75;4.95;;;10.20;99.90;;;;;;4973115;28;20475;-73
2021/05/19 02:19:12;;;;;;;5.28;4.70;;;10.20;99.90;;;;;;4972793;28;20045;-73
2021/05/19 02:21:46;;;;;;;5.40;4.90;;;10.20;99.90;;;;;;4973177;28;20118;-73
2021/05/19 02:24:13;;;;;;;5.80;5.30;;;10.10;99.90;;;;;;4974554;28;20070;-73
2021/05/19 02:26:40;;;;;;;5.80;5.40;;;10.00;99.90;;;;;;4972327;28;20018;-73
2021/05/19 02:29:06;;;;;;;5.82;4.95;;;10.00;99.90;;;;;;4972689;28;20030;-73
2021/05/19 02:31:33;;;;;;;6.40;5.80;;;9.90;99.90;;;;;;4972577;28;20495;-73
2021/05/19 02:33:58;;;;;;;7.18;6.57;;;9.80;99.90;;;;;;4973024;28;20026;-73
2021/05/19 02:36:24;;;;;;;7.63;6.93;;;9.80;99.90;;;;;;4972752;28;20102;-73
2021/05/19 02:38:50;;;;;;;6.75;6.15;;;9.80;99.90;;;;;;4972555;28;20874;-73
2021/05/19 02:41:16;;;;;;;7.15;6.55;;;9.70;99.90;;;;;;4973216;28;20027;-73
2021/05/19 02:43:42;;;;;;;9.38;7.65;;;9.80;99.90;;;;;;4972774;28;20033;-73
2021/05/19 02:46:07;;;;;;;10.65;9.38;;;9.70;99.90;;;;;;4972041;28;20058;-73
2021/05/19 02:48:33;;;;;;;11.88;9.25;;;9.80;99.90;;;;;;4966460;28;20038;-73
2021/05/19 02:50:59;;;;;;;7.38;6.68;;;9.80;99.90;;;;;;4972787;28;20034;-73
2021/05/19 02:53:25;;;;;;;9.80;8.23;;;9.80;99.90;;;;;;4973069;28;20019;-73
2021/05/19 02:55:51;;;;;;;10.15;9.05;;;9.80;99.90;;;;;;4972620;28;20030;-72
2021/05/19 02:58:16;;;;;;;10.65;9.65;;;9.80;99.90;;;;;;4970979;28;20077;-73
2021/05/19 03:00:42;;;;;;;12.00;10.02;;;9.80;99.90;;;;;;4972415;28;20088;-73
2021/05/19 03:03:08;;;;;;;11.23;10.10;;;9.70;99.90;;;;;;4972749;28;20022;-73
2021/05/19 03:05:33;;;;;;;13.55;12.18;;;9.70;99.90;;;;;;4972368;28;20030;-73
2021/05/19 03:07:59;;;;;;;12.73;11.35;;;9.60;99.90;;;;;;4972159;28;20023;-73
2021/05/19 03:10:25;;;;;;;14.88;11.02;;;9.60;99.90;;;;;;4972804;28;20460;-73
2021/05/19 03:12:51;;;;;;;13.88;11.63;;;9.70;99.90;;;;;;4972183;28;20034;-73
2021/05/19 03:15:19;;;;;;;12.95;11.52;;;9.60;99.90;;;;;;4972730;28;20026;-73
2021/05/19 03:17:46;;;;;;;15.68;11.82;;;9.60;99.90;;;;;;4963518;28;20062;-73
2021/05/19 03:20:12;;;;;;;16.33;12.65;;;9.70;99.90;;;;;;4972679;28;20571;-73
2021/05/19 03:22:38;;;;;;;13.50;12.10;;;9.70;99.90;;;;;;4972307;28;20039;-73
2021/05/19 03:25:06;;;;;;;16.60;12.95;;;9.70;99.90;;;;;;4972813;28;20033;-73
2021/05/19 03:27:32;;;;;;;15.07;13.15;;;9.70;99.90;;;;;;4970880;28;20025;-73
2021/05/19 03:29:57;;;;;;;15.65;13.20;;;9.70;99.90;;;;;;4972594;28;20015;-74
2021/05/19 03:32:23;;;;;;;17.52;14.02;;;9.70;99.90;;;;;;4972369;28;20057;-73
2021/05/19 03:34:49;;;;;;;20.77;14.25;;;9.70;99.90;;;;;;4972557;28;20046;-73
2021/05/19 03:37:15;;;;;;;16.65;13.38;;;9.70;99.90;;;;;;4968692;28;20498;-73
2021/05/19 03:39:41;;;;;;;14.88;13.30;;;9.70;99.90;;;;;;4971282;28;20050;-73
2021/05/19 03:42:07;;;;;;;19.15;14.85;;;9.70;99.90;;;;;;4976150;28;20464;-73
2021/05/19 03:44:33;;;;;;;18.30;14.05;;;9.70;99.90;;;;;;4973768;28;20488;-73
2021/05/19 03:46:59;;;;;;;19.52;14.20;;;9.80;99.90;;;;;;4976299;28;20046;-73
2021/05/19 03:49:27;;;;;;;20.80;14.63;;;9.70;99.90;;;;;;4976369;28;20558;-73
2021/05/19 03:51:54;;;;;;;24.45;15.55;;;9.70;99.90;;;;;;4975707;28;20046;-73
2021/05/19 03:54:19;;;;;;;19.13;14.23;;;9.70;99.90;;;;;;4976009;28;20129;-73
2021/05/19 03:56:45;;;;;;;19.42;14.35;;;9.70;99.90;;;;;;4974186;28;20113;-73
2021/05/19 03:59:11;;;;;;;19.05;14.38;;;9.80;99.90;;;;;;4975770;28;20094;-73
2021/05/19 04:01:37;;;;;;;18.00;14.23;;;9.80;99.90;;;;;;4975419;28;20030;-73
2021/05/19 04:04:03;;;;;;;21.40;14.80;;;9.80;99.90;;;;;;4975838;28;20034;-73
2021/05/19 04:06:29;;;;;;;19.02;12.95;;;9.80;99.90;;;;;;4971085;28;20046;-73
2021/05/19 04:08:57;;;;;;;18.40;13.88;;;9.80;99.90;;;;;;4974995;28;20475;-74
2021/05/19 04:11:23;;;;;;;17.92;13.93;;;9.80;99.90;;;;;;4975463;28;20027;-73
2021/05/19 04:13:48;;;;;;;23.13;14.82;;;9.90;99.90;;;;;;4974939;28;20357;-73
2021/05/19 04:16:14;;;;;;;21.20;14.65;;;9.90;99.90;;;;;;4973689;28;20038;-73
2021/05/19 04:18:40;;;;;;;21.23;14.07;;;9.80;99.90;;;;;;4975030;28;20045;-73
2021/05/19 04:21:06;;;;;;;18.63;14.10;;;9.80;99.90;;;;;;4975609;28;20023;-73
2021/05/19 04:23:33;;;;;;;24.25;14.90;;;9.80;99.90;;;;;;4974812;28;20038;-73
2021/05/19 04:25:58;;;;;;;21.92;14.57;;;9.80;99.90;;;;;;4975848;28;20023;-73
2021/05/19 04:28:24;;;;;;;22.08;15.80;;;9.90;99.90;;;;;;4975078;28;20081;-73
2021/05/19 04:30:51;;;;;;;21.92;13.75;;;9.90;99.90;;;;;;4975130;28;20041;-73
2021/05/19 04:33:18;;;;;;;20.40;14.88;;;10.00;99.90;;;;;;4975271;28;20054;-73
2021/05/19 04:35:44;;;;;;;23.88;15.00;;;9.90;99.90;;;;;;4972407;28;20026;-73
2021/05/19 04:38:10;;;;;;;19.55;14.35;;;10.10;99.90;;;;;;4969663;28;20027;-73
2021/05/19 04:40:36;;;;;;;20.65;14.20;;;10.20;99.90;;;;;;4975083;28;20082;-73
2021/05/19 04:43:07;;;;;;;23.55;14.55;;;10.40;99.90;;;;;;4974843;28;20030;-72
2021/05/19 04:45:33;;;;;;;20.65;13.52;;;10.50;99.90;;;;;;4971845;28;20107;-73
2021/05/19 04:47:59;;;;;;;18.92;14.48;;;10.50;99.90;;;;;;4973967;28;20487;-73
2021/05/19 04:50:25;;;;;;;20.88;12.88;;;10.70;99.90;;;;;;4975168;28;20027;-73
2021/05/19 04:52:51;;;;;;;22.00;12.27;;;10.80;99.90;;;;;;4974106;28;20057;-73
2021/05/19 04:55:16;;;;;;;25.40;13.55;;;10.80;99.90;;;;;;4974808;28;20026;-73
2021/05/19 04:57:43;;;;;;;21.33;12.35;;;10.90;99.90;;;;;;4965728;28;20419;-73
2021/05/19 05:00:09;;;;;;;23.60;12.30;;;10.90;99.90;;;;;;4975247;28;20113;-73
2021/05/19 05:02:36;;;;;;;23.95;12.35;;;11.00;99.90;;;;;;4974408;28;20018;-73
2021/05/19 05:05:07;;;;;;;25.35;13.00;;;11.10;99.90;;;;;;4975188;28;20050;-73
2021/05/19 05:07:33;;;;;;;20.17;11.85;;;11.10;99.90;;;;;;4970415;28;20487;-73
2021/05/19 05:10:00;;;;;;;22.17;12.60;;;11.00;99.90;;;;;;4974362;28;20038;-73
2021/05/19 05:12:26;;;;;;;20.80;11.10;;;11.10;99.90;;;;;;4971096;28;20781;-73
2021/05/19 05:14:52;;;;;;;18.48;10.85;;;11.20;99.90;;;;;;4973827;28;20038;-73
2021/05/19 05:17:17;;;;;;;16.95;9.82;;;11.30;99.90;;;;;;4963877;28;20033;-73
2021/05/19 05:19:43;;;;;;;26.40;10.77;;;11.40;99.90;;;;;;4973512;28;20053;-73
2021/05/19 05:22:09;;;;;;;17.73;10.05;;;11.50;99.90;;;;;;4974880;28;20550;-73
2021/05/19 05:24:35;;;;;;;23.52;11.30;;;11.50;99.90;;;;;;4973612;28;20053;-73
2021/05/19 05:27:00;;;;;;;16.88;9.63;;;11.60;99.90;;;;;;4974589;28;20026;-73
2021/05/19 05:29:26;;;;;;;25.50;11.90;;;11.70;99.90;;;;;;4966959;28;20556;-73
2021/05/19 05:31:51;;;;;;;18.55;11.25;;;11.80;99.90;;;;;;4973613;28;20027;-73
2021/05/19 05:34:17;;;;;;;19.38;10.48;;;11.90;99.90;;;;;;4974193;28;20383;-73
2021/05/19 05:36:43;;;;;;;20.95;10.43;;;11.90;99.90;;;;;;4965614;28;20063;-73
2021/05/19 05:39:09;;;;;;;19.88;10.93;;;11.90;99.90;;;;;;4973630;28;20023;-73
2021/05/19 05:41:34;;;;;;;23.08;10.35;;;12.00;99.90;;;;;;4974018;28;20382;-73
2021/05/19 05:44:00;;;;;;;18.23;10.65;;;12.00;99.90;;;;;;4974305;28;20384;-72
2021/05/19 05:46:26;;;;;;;20.42;9.75;;;12.00;99.90;;;;;;4969464;28;20066;-73
2021/05/19 05:48:51;;;;;;;13.52;8.70;;;12.10;99.90;;;;;;4971027;28;20395;-73
2021/05/19 05:51:17;;;;;;;19.95;9.60;;;12.20;99.90;;;;;;4971838;28;20037;-73
2021/05/19 05:53:43;;;;;;;19.50;8.40;;;12.20;99.90;;;;;;4971470;28;20426;-73
2021/05/19 05:56:08;;;;;;;22.02;9.68;;;12.30;99.90;;;;;;4972304;28;20027;-75
2021/05/19 05:58:34;;;;;;;21.83;10.48;;;12.30;99.90;;;;;;4973224;28;20586;-73
2021/05/19 06:01:00;;;;;;;26.00;14.52;;;12.30;99.90;;;;;;4972687;28;20066;-72
2021/05/19 06:03:26;;;;;;;17.13;10.32;;;12.40;99.90;;;;;;4973057;28;20110;-73
2021/05/19 06:05:51;;;;;;;22.80;10.43;;;12.40;99.90;;;;;;4972903;28;20046;-72
2021/05/19 06:08:17;;;;;;;19.42;9.43;;;12.60;99.90;;;;;;4973281;28;20026;-72
2021/05/19 06:10:42;;;;;;;19.98;9.40;;;12.60;99.90;;;;;;4973440;28;20023;-73
2021/05/19 06:13:08;;;;;;;23.35;10.52;;;12.60;99.90;;;;;;4974018;28;20034;-73
2021/05/19 06:15:34;;;;;;;21.77;9.60;;;12.70;99.90;;;;;;4972059;28;20027;-72
2021/05/19 06:18:00;;;;;;;24.60;9.80;;;12.70;99.90;;;;;;4965809;28;20502;-73
2021/05/19 06:20:25;;;;;;;20.63;8.43;;;12.60;99.90;;;;;;4973375;28;20035;-73
2021/05/19 06:22:51;;;;;;;22.85;9.52;;;12.70;99.90;;;;;;4971476;28;20066;-73
2021/05/19 06:25:18;;;;;;;18.15;8.32;;;12.80;99.90;;;;;;4973155;28;20022;-73
2021/05/19 06:27:43;;;;;;;17.38;8.32;;;12.80;99.90;;;;;;4970581;28;20030;-73
2021/05/19 06:30:10;;;;;;;16.95;8.70;;;12.80;99.90;;;;;;4973097;28;20098;-73
2021/05/19 06:32:36;;;;;;;16.92;7.55;;;12.80;99.90;;;;;;4962831;28;20480;-73
2021/05/19 06:35:02;;;;;;;19.23;8.82;;;12.80;99.90;;;;;;4963807;28;20046;-74
2021/05/19 06:37:27;;;;;;;18.45;9.40;;;12.80;99.90;;;;;;4960510;28;20485;-74
2021/05/19 06:39:53;;;;;;;21.58;9.85;;;12.80;99.90;;;;;;4955490;28;20068;-74
2021/05/19 06:42:20;;;;;;;15.45;8.65;;;12.70;99.90;;;;;;4961405;28;20558;-74
2021/05/19 06:44:46;;;;;;;22.45;8.63;;;12.70;99.90;;;;;;4970236;28;20506;-73
2021/05/19 06:47:11;;;;;;;18.05;7.88;;;12.90;99.90;;;;;;4964391;28;20110;-73
2021/05/19 06:49:37;;;;;;;19.73;8.85;;;12.80;99.90;;;;;;4960762;28;20154;-73
2021/05/19 06:52:03;;;;;;;20.50;8.98;;;12.80;99.90;;;;;;4959413;28;20031;-74
2021/05/19 06:54:29;;;;;;;19.17;9.13;;;12.90;99.90;;;;;;4963709;28;20019;-73
2021/05/19 06:56:54;;;;;;;19.83;9.43;;;12.90;99.90;;;;;;4961551;28;20030;-73
2021/05/19 06:59:21;;;;;;;21.73;8.45;;;12.90;99.90;;;;;;4971279;28;20407;-73
2021/05/19 07:01:47;;;;;;;17.48;7.90;;;13.00;99.90;;;;;;4970684;28;20032;-73
2021/05/19 07:04:13;;;;;;;19.50;8.55;;;13.10;99.90;;;;;;4972328;28;20039;-73
2021/05/19 07:06:39;;;;;;;20.63;10.27;;;13.10;99.90;;;;;;4970639;28;20015;-73
2021/05/19 07:09:05;;;;;;;21.77;9.65;;;13.20;99.90;;;;;;4969367;28;20094;-73
2021/05/19 07:11:31;;;;;;;18.08;8.50;;;13.20;99.90;;;;;;4969348;28;20026;-73
2021/05/19 07:13:58;;;;;;;20.05;8.45;;;13.20;99.90;;;;;;4972826;28;20019;-73
2021/05/19 07:16:25;;;;;;;21.33;9.70;;;13.30;99.90;;;;;;4967475;28;20051;-73
2021/05/19 07:18:56;;;;;;;19.70;7.90;;;13.40;99.90;;;;;;4976107;28;20046;-73
2021/05/19 07:21:22;;;;;;;19.70;7.53;;;13.40;99.90;;;;;;4976684;28;20039;-73
2021/05/19 07:23:48;;;;;;;19.52;8.05;;;13.50;99.90;;;;;;4976511;28;20019;-73
2021/05/19 07:26:14;;;;;;;21.42;8.88;;;13.60;99.90;;;;;;4971821;28;20036;-73
2021/05/19 07:28:40;;;;;;;24.23;9.48;;;13.50;99.90;;;;;;4975198;28;20018;-73
2021/05/19 07:31:06;;;;;;;20.75;9.43;;;13.60;99.90;;;;;;4964975;28;20442;-72
2021/05/19 07:33:32;;;;;;;18.33;9.20;;;13.70;99.90;;;;;;4967668;28;20030;-73
2021/05/19 07:35:58;;;;;;;19.73;8.30;;;13.60;99.90;;;;;;4963660;28;20535;-74
2021/05/19 07:38:24;;;;;;;16.73;8.65;;;13.60;99.90;;;;;;4972255;28;20448;-74
2021/05/19 07:40:50;;;;;;;18.83;8.02;;;13.60;99.90;;;;;;4975875;28;20042;-74
2021/05/19 07:43:16;;;;;;;16.10;7.72;;;13.80;99.90;;;;;;4974662;28;20054;-73
2021/05/19 07:45:42;;;;;;;37.22;11.50;;;13.90;99.90;;;;;;4975738;28;20030;-73
2021/05/19 07:48:09;;;;;;;18.65;7.85;;;14.10;99.90;;;;;;4972767;28;20030;-73
2021/05/19 07:50:35;;;;;;;19.15;8.77;;;14.10;99.90;;;;;;4975201;28;20027;-73
2021/05/19 07:53:01;;;;;;;16.73;8.73;;;14.30;99.90;;;;;;4971580;28;20034;-73
2021/05/19 07:55:41;;;;;;;16.70;7.85;;;14.40;99.90;;;;;;4972415;28;20027;-73
2021/05/19 07:58:23;;;;;;;16.83;7.93;;;14.40;99.90;;;;;;4969844;28;20038;-73
2021/05/19 08:03:14;;;;;;;18.67;9.55;;;14.60;99.90;;;;;;4973489;28;20472;-74
2021/05/19 08:05:41;;;;;;;16.90;8.00;;;14.70;99.90;;;;;;4972596;28;20077;-74
2021/05/19 08:08:06;;;;;;;15.90;7.68;;;14.60;99.90;;;;;;4974782;28;20024;-74
2021/05/19 08:10:32;;;;;;;15.57;7.45;;;14.60;99.90;;;;;;4971853;28;20339;-73
2021/05/19 08:12:57;;;;;;;14.35;6.75;;;14.60;99.90;;;;;;4974578;28;20045;-72
2021/05/19 08:15:23;;;;;;;11.10;6.03;;;14.70;99.90;;;;;;4974719;28;20026;-74
2021/05/19 08:17:49;;;;;;;19.17;5.90;;;14.80;99.90;;;;;;4965043;28;20031;-73
2021/05/19 08:20:19;;;;;;;9.07;4.32;;;14.90;99.90;;;;;;4960382;28;20035;-74
2021/05/19 08:22:45;;;;;;;9.80;3.60;;;15.00;99.90;;;;;;4962811;28;20492;-73
2021/05/19 08:25:11;;;;;;;16.77;3.90;;;15.10;99.90;;;;;;4959822;28;20058;-73
2021/05/19 08:27:37;;;;;;;12.68;3.42;;;15.10;99.90;;;;;;4964044;28;20472;-72
2021/05/19 08:30:03;;;;;;;8.98;3.50;;;15.10;99.90;;;;;;4975411;28;20376;-76
2021/05/19 08:32:29;;;;;;;11.75;3.60;;;15.10;99.90;;;;;;4972314;28;20030;-74
2021/05/19 08:34:55;;;;;;;8.40;3.13;;;15.10;99.90;;;;;;4973511;28;20023;-74
2021/05/19 08:37:20;;;;;;;8.73;3.65;;;15.10;99.90;;;;;;4971749;28;20023;-75
2021/05/19 08:39:46;;;;;;;14.40;3.72;;;15.10;99.90;;;;;;4972970;28;20407;-74
2021/05/19 08:42:12;;;;;;;9.10;3.65;;;15.10;99.90;;;;;;4970921;28;20106;-73
2021/05/19 08:44:40;;;;;;;10.20;3.25;;;15.30;99.90;;;;;;4973411;28;20161;-72
2021/05/19 08:47:06;;;;;;;10.27;3.53;;;15.30;99.90;;;;;;4974762;28;20066;-74
2021/05/19 08:49:32;;;;;;;9.20;2.33;;;15.50;99.90;;;;;;4973844;28;20063;-72
2021/05/19 08:51:58;;;;;;;7.80;2.60;;;15.60;99.90;;;;;;4974593;28;20507;-72
2021/05/19 08:54:24;;;;;;;5.38;2.40;;;15.70;99.90;;;;;;4974660;28;20023;-74
2021/05/19 08:56:51;;;;;;;4.50;2.50;;;15.60;99.90;;;;;;4952540;28;20129;-71
2021/05/19 08:59:19;;;;;;;6.30;2.42;;;15.70;99.90;;;;;;4961388;28;20021;-70
2021/05/19 09:01:47;;;;;;;9.40;2.60;;;15.80;99.90;;;;;;4964867;28;20032;-71
2021/05/19 09:04:22;;;;;;;4.88;2.00;;;15.90;99.90;;;;;;4962662;28;20023;-73
2021/05/19 09:06:57;;;;;;;9.45;2.50;;;16.10;99.90;;;;;;4961775;28;20038;-73
2021/05/19 09:09:27;;;;;;;11.85;2.60;;;16.10;99.90;;;;;;4962111;28;20082;-71
2021/05/19 09:11:56;;;;;;;8.75;4.85;;;16.10;99.90;;;;;;4963314;28;20022;-74
2021/05/19 09:14:22;;;;;;;11.25;4.80;;;16.00;99.90;;;;;;4963562;28;20029;-74
2021/05/19 09:16:48;;;;;;;9.02;2.55;;;16.20;99.90;;;;;;4965952;28;20019;-72
2021/05/19 09:19:14;;;;;;;12.85;2.72;;;16.30;99.90;;;;;;4964717;28;20034;-72
2021/05/19 09:21:43;;;;;;;9.50;3.05;;;16.10;99.90;;;;;;4963747;28;20038;-73
2021/05/19 09:24:12;;;;;;;12.15;2.80;;;16.10;99.90;;;;;;4960879;28;20046;-74
2021/05/19 09:27:10;;;;;;;5.60;2.35;;;16.40;99.90;;;;;;4963522;28;20074;-73
2021/05/19 09:29:38;;;;;;;6.38;2.42;;;16.50;99.90;;;;;;4934235;28;20039;-75
2021/05/19 09:32:05;;;;;;;6.68;2.45;;;16.80;99.90;;;;;;4966718;28;20089;-74
2021/05/19 09:34:39;;;;;;;7.35;2.00;;;16.70;99.90;;;;;;4972745;28;20030;-74
2021/05/19 09:37:11;;;;;;;11.00;2.30;;;16.60;99.90;;;;;;4974423;28;20025;-74
2021/05/19 09:39:58;;;;;;;10.53;1.97;;;16.60;99.90;;;;;;4973674;28;20089;-74
2021/05/19 09:42:45;;;;;;;6.30;2.33;;;16.70;99.90;;;;;;4970020;28;20500;-74
2021/05/19 09:45:27;;;;;;;9.20;2.40;;;16.70;99.90;;;;;;4971259;28;20030;-73
2021/05/19 09:47:55;;;;;;;6.53;2.22;;;16.70;99.90;;;;;;4973652;28;20023;-75
2021/05/19 09:50:22;;;;;;;6.15;2.22;;;16.60;99.90;;;;;;4969914;28;20035;-74
2021/05/19 09:53:03;;;;;;;6.10;2.03;;;16.50;99.90;;;;;;4971046;28;20019;-74
2021/05/19 09:55:29;;;;;;;12.00;2.78;;;16.20;99.90;;;;;;4974180;28;20355;-77
2021/05/19 09:57:55;;;;;;;11.45;2.70;;;16.10;99.90;;;;;;4963725;28;20022;-72
2021/05/19 10:00:23;;;;;;;9.77;2.97;;;15.90;99.90;;;;;;4971277;28;20039;-73
2021/05/19 10:02:50;;;;;;;12.25;3.75;;;15.80;99.90;;;;;;4971266;28;20019;-70
2021/05/19 10:05:27;;;;;;;11.20;4.18;;;15.70;99.90;;;;;;4973103;28;20023;-73
2021/05/19 10:07:54;;;;;;;14.40;3.92;;;15.60;99.90;;;;;;4971175;28;20038;-69
2021/05/19 10:10:24;;;;;;;9.80;3.40;;;15.60;99.90;;;;;;4973007;28;20034;-69
2021/05/19 10:12:50;;;;;;;8.90;3.55;;;15.50;99.90;;;;;;4961597;28;20031;-75
2021/05/19 10:15:21;;;;;;;8.68;3.25;;;15.70;99.90;;;;;;4958978;28;20104;-70
2021/05/19 10:17:48;;;;;;;13.20;3.67;;;15.70;99.90;;;;;;4958548;28;20614;-72
2021/05/19 10:20:19;;;;;;;5.75;3.08;;;15.80;99.90;;;;;;4963408;28;20404;-71
2021/05/19 10:22:48;;;;;;;10.07;3.47;;;16.10;99.90;;;;;;4968854;28;20122;-70
2021/05/19 10:25:42;;;;;;;8.55;4.30;;;16.20;99.90;;;;;;4968570;28;20027;-70
2021/05/19 10:28:18;;;;;;;5.78;2.47;;;16.20;99.90;;;;;;4958182;28;20026;-71
2021/05/19 10:30:47;;;;;;;8.85;2.67;;;16.40;99.90;;;;;;4962791;28;20066;-71
2021/05/19 10:33:37;;;;;;;5.13;2.65;;;16.50;99.90;;;;;;4964917;28;20031;-70
2021/05/19 10:36:24;;;;;;;3.58;1.77;;;16.80;99.90;;;;;;4962017;28;20042;-72
2021/05/19 10:39:10;;;;;;;5.97;1.45;;;16.90;99.90;;;;;;4966816;28;20046;-71
2021/05/19 10:41:39;;;;;;;6.43;2.60;;;16.90;99.90;;;;;;4959801;28;20034;-84
2021/05/19 10:44:09;;;;;;;6.65;2.60;;;16.90;99.90;;;;;;4957693;28;20151;-70
2021/05/19 10:49:42;;;;;;;8.88;2.88;;;16.60;99.90;;;;;;4955327;28;20091;-70
2021/05/19 10:57:43;;;;;;;6.70;2.33;;;16.50;99.90;;;;;;4970188;28;20033;-74
2021/05/19 11:00:23;;;;;;;5.63;2.70;;;16.40;99.90;;;;;;4961748;28;20043;-70
2021/05/19 11:05:30;;;;;;;6.30;1.95;;;16.20;99.90;;;;;;4967335;28;20373;-71
2021/05/19 11:08:08;;;;;;;4.63;1.92;;;16.20;99.90;;;;;;4961870;28;20063;-67
2021/05/19 11:10:52;;;;;;;6.28;2.40;;;16.20;99.90;;;;;;4956739;28;20042;-68
2021/05/19 11:13:20;;;;;;;5.20;2.67;;;16.10;99.90;;;;;;4966444;28;20027;-68
2021/05/19 11:18:58;;;;;;;10.20;3.50;;;16.30;99.90;;;;;;4965205;28;20035;-71
2021/05/19 11:21:22;;;;;;;10.63;2.75;;;16.40;99.90;;;;;;4960752;28;20080;-71
2021/05/19 11:24:07;;;;;;;7.07;2.20;;;16.50;99.90;;;;;;4961726;28;20114;-71
2021/05/19 11:26:37;;;;;;;5.30;1.83;;;16.50;99.90;;;;;;4959140;28;20031;-72
2021/05/19 11:29:03;;;;;;;5.55;1.60;;;16.60;99.90;;;;;;4966565;28;20436;-72
2021/05/19 11:31:36;;;;;;;5.05;1.73;;;16.50;99.90;;;;;;4962414;28;20018;-70
2021/05/19 11:34:04;;;;;;;9.48;2.33;;;16.60;99.90;;;;;;4965690;28;20070;-73
2021/05/19 11:36:30;;;;;;;5.50;2.55;;;16.60;99.90;;;;;;4960680;28;20029;-74
2021/05/19 11:38:59;;;;;;;7.03;2.60;;;16.80;99.90;;;;;;4964971;28;20078;-69
2021/05/19 11:41:25;;;;;;;8.18;2.95;;;17.00;99.90;;;;;;4958847;28;20045;-74
2021/05/19 11:43:50;;;;;;;6.70;3.40;;;16.90;99.90;;;;;;4961121;28;20121;-76
2021/05/19 11:46:16;;;;;;;8.63;4.00;;;16.90;99.90;;;;;;4957060;28;20037;-75
2021/05/19 11:48:48;;;;;;;5.13;2.97;;;17.00;99.90;;;;;;4956220;28;20106;-71
2021/05/19 11:51:24;;;;;;;8.07;3.15;;;17.00;99.90;;;;;;4966266;28;20042;-71
2021/05/19 11:54:01;;;;;;;12.18;3.53;;;16.90;99.90;;;;;;4971162;28;20018;-79
2021/05/19 11:56:47;;;;;;;8.57;3.67;;;16.90;99.90;;;;;;4968658;28;20031;-78
2021/05/19 11:59:24;;;;;;;10.65;3.70;;;16.80;99.90;;;;;;4972026;28;20146;-73
2021/05/19 12:01:53;;;;;;;10.55;3.20;;;16.70;99.90;;;;;;4968767;28;20138;-72
2021/05/19 12:04:20;;;;;;;8.15;3.10;;;16.80;99.90;;;;;;4976030;28;20042;-72
2021/05/19 12:06:47;;;;;;;7.85;3.22;;;16.80;99.90;;;;;;4975964;28;20015;-75
2021/05/19 12:09:14;;;;;;;9.52;3.67;;;16.90;99.90;;;;;;4975790;28;20349;-74
2021/05/19 12:11:39;;;;;;;6.18;3.53;;;17.00;99.90;;;;;;4976616;28;20030;-72
2021/05/19 12:14:08;;;;;;;7.43;2.80;;;17.00;99.90;;;;;;4976571;28;20027;-73
2021/05/19 12:16:45;;;;;;;5.13;3.00;;;17.00;99.90;;;;;;4966014;28;20042;-72
2021/05/19 12:19:11;;;;;;;6.10;2.58;;;17.00;99.90;;;;;;4969757;28;20031;-72
2021/05/19 12:21:40;;;;;;;5.97;2.38;;;17.10;99.90;;;;;;4977672;28;20030;-73
2021/05/19 12:24:06;;;;;;;7.00;4.88;;;17.00;99.90;;;;;;4984519;28;20237;-72
2021/05/19 12:26:37;;;;;;;7.80;5.60;;;16.80;99.90;;;;;;4967281;28;20101;-72
2021/05/19 12:29:04;;;;;;;7.72;6.13;;;16.70;99.90;;;;;;4979216;28;20159;-71
2021/05/19 12:31:35;;;;;;;8.38;6.20;;;16.60;99.90;;;;;;4978272;28;20022;-71
2021/05/19 12:34:14;;;;;;;10.57;6.38;;;16.50;99.90;;;;;;4977115;28;20377;-71
2021/05/19 12:36:41;;;;;;;7.93;6.32;;;16.50;99.90;;;;;;4976838;28;20035;-71
2021/05/19 12:39:08;;;;;;;12.05;6.07;;;16.50;99.90;;;;;;4987305;28;20556;-72
2021/05/19 12:41:52;;;;;;;7.18;5.10;;;16.50;99.90;;;;;;4978478;28;20383;-71
2021/05/19 12:44:25;;;;;;;7.03;4.68;;;16.50;99.90;;;;;;4989235;28;20026;-71
2021/05/19 12:47:06;;;;;;;5.97;4.50;;;16.40;99.90;;;;;;4980607;28;20077;-71
2021/05/19 12:49:33;;;;;;;9.27;4.07;;;16.30;99.90;;;;;;4983635;28;20039;-71
2021/05/19 12:52:01;;;;;;;6.47;4.93;;;16.30;99.90;;;;;;4974499;28;20427;-71
2021/05/19 12:54:33;;;;;;;9.80;4.72;;;16.30;99.90;;;;;;4979888;28;20022;-71
2021/05/19 12:56:59;;;;;;;7.00;4.70;;;16.20;99.90;;;;;;4972757;28;20022;-71
2021/05/19 12:59:25;;;;;;;6.05;5.15;;;16.10;99.90;;;;;;4976723;28;20066;-71
2021/05/19 13:01:52;;;;;;;4.95;4.05;;;16.10;99.90;;;;;;4963824;28;20109;-72